createdAt,value
2023-03-22T00:00:55.404Z,100922.25
2023-03-22T00:03:23.607Z,100919.19
2023-03-22T00:05:49.992Z,100917.78
2023-03-22T00:08:16.344Z,100909.34
2023-03-22T00:10:42.818Z,100915.00
2023-03-22T00:13:11.108Z,100917.19
2023-03-22T00:15:37.493Z,100915.38
2023-03-22T00:18:04.005Z,100902.28
2023-03-22T00:20:30.325Z,100905.16
2023-03-22T00:22:57.700Z,100903.75
2023-03-22T00:25:24.103Z,100907.34
2023-03-22T00:27:50.801Z,100910.56
2023-03-22T00:30:17.653Z,100903.69
2023-03-22T00:32:44.159Z,100897.25
2023-03-22T00:35:11.728Z,100903.06
2023-03-22T00:37:38.353Z,100898.84
2023-03-22T00:40:06.504Z,100898.84
2023-03-22T00:42:32.876Z,100898.47
2023-03-22T00:44:59.247Z,100907.34
2023-03-22T00:47:25.566Z,100894.81
2023-03-22T00:49:52.036Z,100898.88
2023-03-22T00:52:18.373Z,100888.84
2023-03-22T00:54:44.742Z,100894.25
2023-03-22T00:57:11.119Z,100885.41
2023-03-22T00:59:37.506Z,100885.03
2023-03-22T01:02:04.864Z,100880.59
2023-03-22T01:04:32.896Z,100873.53
2023-03-22T01:06:59.329Z,100874.38
2023-03-22T01:09:27.286Z,100872.75
2023-03-22T01:11:54.448Z,100873.34
2023-03-22T01:14:20.819Z,100876.75
2023-03-22T01:16:47.225Z,100868.06
2023-03-22T01:19:13.720Z,100871.47
2023-03-22T01:21:40.069Z,100867.41
2023-03-22T01:24:06.740Z,100872.22
2023-03-22T01:26:33.123Z,100858.72
2023-03-22T01:28:59.620Z,100857.53
2023-03-22T01:31:26.010Z,100854.16
2023-03-22T01:33:52.433Z,100854.56
2023-03-22T01:36:18.765Z,100840.50
2023-03-22T01:38:45.162Z,100836.47
2023-03-22T01:41:11.518Z,100835.28
2023-03-22T01:43:37.932Z,100828.41
2023-03-22T01:46:04.621Z,100827.63
2023-03-22T01:48:38.989Z,100821.97
2023-03-22T01:51:13.234Z,100819.16
2023-03-22T01:54:02.123Z,100810.69
2023-03-22T01:56:32.637Z,100800.41
2023-03-22T01:58:59.412Z,100794.97
2023-03-22T02:01:25.930Z,100787.72
2023-03-22T02:04:04.166Z,100787.28
2023-03-22T02:06:30.505Z,100782.06
2023-03-22T02:08:56.941Z,100781.03
2023-03-22T02:11:34.944Z,100776.00
2023-03-22T02:14:14.385Z,100765.94
2023-03-22T02:17:08.923Z,100769.34
2023-03-22T02:20:12.896Z,100764.31
2023-03-22T02:23:02.873Z,100760.31
2023-03-22T02:25:47.880Z,100759.09
2023-03-22T02:28:38.896Z,100744.44
2023-03-22T02:31:40.865Z,100743.84
2023-03-22T02:34:37.791Z,100744.88
2023-03-22T02:37:50.105Z,100745.47
2023-03-22T02:40:27.578Z,100730.78
2023-03-22T02:43:14.775Z,100737.63
2023-03-22T02:45:51.459Z,100731.59
2023-03-22T02:48:27.628Z,100723.75
2023-03-22T02:50:57.027Z,100726.97
2023-03-22T02:53:44.144Z,100716.72
2023-03-22T02:56:34.767Z,100715.31
2023-03-22T02:59:04.300Z,100700.63
2023-03-22T03:01:37.100Z,100710.31
2023-03-22T03:04:09.320Z,100709.69
2023-03-22T03:06:38.593Z,100704.88
2023-03-22T03:09:06.093Z,100700.47
2023-03-22T03:11:33.017Z,100705.28
2023-03-22T03:13:59.652Z,100697.06
2023-03-22T03:16:30.543Z,100696.84
2023-03-22T03:19:20.690Z,100687.00
2023-03-22T03:21:50.042Z,100688.00
2023-03-22T03:24:22.946Z,100680.16
2023-03-22T03:26:56.408Z,100685.41
2023-03-22T03:29:29.764Z,100684.19
2023-03-22T03:32:06.784Z,100681.56
2023-03-22T03:34:48.392Z,100678.34
2023-03-22T03:37:27.146Z,100679.75
2023-03-22T03:40:04.237Z,100677.56
2023-03-22T03:42:31.908Z,100675.13
2023-03-22T03:44:58.488Z,100677.56
2023-03-22T03:47:25.666Z,100670.31
2023-03-22T03:49:52.048Z,100675.72
2023-03-22T03:52:18.695Z,100669.09
2023-03-22T03:54:45.153Z,100668.69
2023-03-22T03:57:11.492Z,100675.31
2023-03-22T03:59:37.880Z,100671.50
2023-03-22T04:02:04.230Z,100668.88
2023-03-22T04:04:30.663Z,100679.91
2023-03-22T04:06:58.945Z,100682.75
2023-03-22T04:09:27.291Z,100689.97
2023-03-22T04:11:54.734Z,100686.38
2023-03-22T04:14:21.449Z,100672.69
2023-03-22T04:16:47.961Z,100679.50
2023-03-22T04:19:15.279Z,100671.91
2023-03-22T04:21:42.155Z,100671.16
2023-03-22T04:24:09.450Z,100679.22
2023-03-22T04:26:35.911Z,100668.38
2023-03-22T04:29:02.456Z,100674.81
2023-03-22T04:31:30.571Z,100652.47
2023-03-22T04:33:56.944Z,100669.78
2023-03-22T04:36:24.583Z,100652.22
2023-03-22T04:38:51.588Z,100653.03
2023-03-22T04:41:18.716Z,100651.59
2023-03-22T04:43:45.134Z,100648.75
2023-03-22T04:46:11.501Z,100658.63
2023-03-22T04:48:38.521Z,100654.59
2023-03-22T04:51:06.556Z,100656.03
2023-03-22T04:53:33.291Z,100654.41
2023-03-22T04:55:59.734Z,100653.19
2023-03-22T04:58:26.351Z,100642.72
2023-03-22T05:00:53.618Z,100646.38
2023-03-22T05:03:20.740Z,100643.13
2023-03-22T05:05:55.781Z,100642.13
2023-03-22T05:08:23.486Z,100635.09
2023-03-22T05:10:49.862Z,100629.25
2023-03-22T05:13:16.331Z,100629.41
2023-03-22T05:15:43.011Z,100615.13
2023-03-22T05:18:09.530Z,100627.22
2023-03-22T05:20:35.936Z,100625.22
2023-03-22T05:23:02.488Z,100619.19
2023-03-22T05:25:28.842Z,100613.72
2023-03-22T05:27:55.221Z,100613.72
2023-03-22T05:30:22.000Z,100612.72
2023-03-22T05:32:48.848Z,100617.34
2023-03-22T05:35:15.303Z,100616.56
2023-03-22T05:37:41.691Z,100616.16
2023-03-22T05:40:08.704Z,100612.75
2023-03-22T05:42:35.144Z,100611.91
2023-03-22T05:45:01.487Z,100620.38
2023-03-22T05:47:28.037Z,100619.19
2023-03-22T05:49:54.407Z,100617.75
2023-03-22T05:52:20.776Z,100622.41
2023-03-22T05:54:47.122Z,100620.81
2023-03-22T05:57:13.565Z,100605.88
2023-03-22T05:59:40.515Z,100606.69
2023-03-22T06:02:06.953Z,100601.28
2023-03-22T06:04:33.357Z,100607.50
2023-03-22T06:06:59.762Z,100609.34
2023-03-22T06:09:26.086Z,100618.63
2023-03-22T06:11:52.380Z,100605.94
2023-03-22T06:14:18.755Z,100609.16
2023-03-22T06:16:45.176Z,100616.38
2023-03-22T06:19:11.515Z,100608.94
2023-03-22T06:21:37.959Z,100603.94
2023-03-22T06:24:04.552Z,100598.69
2023-03-22T06:26:30.917Z,100591.28
2023-03-22T06:28:57.206Z,100591.03
2023-03-22T06:31:23.513Z,100594.25
2023-03-22T06:33:49.923Z,100593.66
2023-03-22T06:36:16.383Z,100599.03
2023-03-22T06:38:42.744Z,100604.63
2023-03-22T06:41:09.094Z,100599.28
2023-03-22T06:43:35.425Z,100607.09
2023-03-22T06:46:01.850Z,100598.81
2023-03-22T06:48:28.217Z,100605.78
2023-03-22T06:50:54.558Z,100592.91
2023-03-22T06:53:20.946Z,100600.28
2023-03-22T06:55:47.322Z,100599.91
2023-03-22T06:58:13.717Z,100590.34
2023-03-22T07:00:40.356Z,100579.44
2023-03-22T07:03:06.816Z,100579.28
2023-03-22T07:05:33.193Z,100581.75
2023-03-22T07:07:59.529Z,100586.34
2023-03-22T07:10:25.871Z,100588.91
2023-03-22T07:12:52.290Z,100582.31
2023-03-22T07:15:18.718Z,100585.31
2023-03-22T07:17:45.042Z,100589.94
2023-03-22T07:20:11.633Z,100593.41
2023-03-22T07:22:37.986Z,100588.16
2023-03-22T07:25:04.753Z,100598.97
2023-03-22T07:27:31.250Z,100589.41
2023-03-22T07:29:57.766Z,100581.16
2023-03-22T07:32:24.172Z,100584.06
2023-03-22T07:34:50.552Z,100597.84
2023-03-22T07:37:16.877Z,100589.31
2023-03-22T07:39:43.224Z,100597.41
2023-03-22T07:42:09.650Z,100592.94
2023-03-22T07:44:36.326Z,100575.06
2023-03-22T07:47:02.713Z,100589.63
2023-03-22T07:49:29.100Z,100577.38
2023-03-22T07:51:55.481Z,100577.03
2023-03-22T07:54:32.922Z,100583.72
2023-03-22T07:57:00.266Z,100600.28
2023-03-22T07:59:26.698Z,100602.50
2023-03-22T08:01:53.165Z,100602.13
2023-03-22T08:04:19.638Z,100599.88
2023-03-22T08:06:45.964Z,100587.56
2023-03-22T08:09:12.431Z,100596.19
2023-03-22T08:11:38.744Z,100589.28
2023-03-22T08:14:05.169Z,100605.03
2023-03-22T08:16:31.581Z,100588.25
2023-03-22T08:18:58.263Z,100587.84
2023-03-22T08:21:24.644Z,100573.56
2023-03-22T08:23:51.063Z,100577.50
2023-03-22T08:26:17.451Z,100583.13
2023-03-22T08:28:43.828Z,100572.88
2023-03-22T08:31:15.612Z,100580.59
2023-03-22T08:33:43.096Z,100596.50
2023-03-22T08:36:13.380Z,100586.41
2023-03-22T08:38:39.765Z,100584.03
2023-03-22T08:41:06.083Z,100587.75
2023-03-22T08:43:32.407Z,100592.78
2023-03-22T08:45:58.958Z,100581.09
2023-03-22T08:48:25.519Z,100582.88
2023-03-22T08:50:51.900Z,100568.34
2023-03-22T08:53:18.323Z,100582.31
2023-03-22T08:55:44.868Z,100579.13
2023-03-22T08:58:12.769Z,100567.81
2023-03-22T09:00:48.278Z,100573.06
2023-03-22T09:03:15.627Z,100560.41
2023-03-22T09:05:42.297Z,100562.72
2023-03-22T09:08:08.829Z,100566.72
2023-03-22T09:10:38.581Z,100571.75
2023-03-22T09:13:05.108Z,100573.13
2023-03-22T09:15:31.505Z,100573.50
2023-03-22T09:17:58.065Z,100566.59
2023-03-22T09:20:24.488Z,100560.09
2023-03-22T09:22:51.756Z,100561.03
2023-03-22T09:25:18.643Z,100558.19
2023-03-22T09:27:44.976Z,100558.19
2023-03-22T09:30:11.642Z,100555.25
2023-03-22T09:32:40.333Z,100547.97
2023-03-22T09:35:06.972Z,100553.13
2023-03-22T09:37:33.368Z,100554.94
2023-03-22T09:39:59.714Z,100562.31
2023-03-22T09:42:47.340Z,100561.75
2023-03-22T09:45:18.775Z,100569.94
2023-03-22T09:47:51.475Z,100570.59
2023-03-22T09:50:24.925Z,100566.81
2023-03-22T09:52:52.514Z,100578.28
2023-03-22T09:55:33.337Z,100552.31
2023-03-22T09:58:18.104Z,100574.19
2023-03-22T10:00:53.731Z,100572.19
2023-03-22T10:03:44.881Z,100562.94
2023-03-22T10:06:19.229Z,100565.69
2023-03-22T10:09:22.009Z,100560.44
2023-03-22T10:12:01.138Z,100567.31
2023-03-22T10:15:09.680Z,100575.78
2023-03-22T10:17:37.492Z,100559.84
2023-03-22T10:20:37.512Z,100572.28
2023-03-22T10:23:09.050Z,100558.88
2023-03-22T10:25:41.297Z,100569.00
2023-03-22T10:28:21.303Z,100574.03
2023-03-22T10:30:53.451Z,100558.56
2023-03-22T10:33:27.328Z,100572.63
2023-03-22T10:35:55.571Z,100577.94
2023-03-22T10:38:26.110Z,100572.09
2023-03-22T10:40:56.488Z,100581.34
2023-03-22T10:43:33.602Z,100582.16
2023-03-22T10:46:03.140Z,100591.09
2023-03-22T10:48:36.249Z,100580.97
2023-03-22T10:51:03.179Z,100576.28
2023-03-22T10:53:38.606Z,100590.34
2023-03-22T10:56:06.368Z,100589.19
2023-03-22T10:58:34.461Z,100581.53
2023-03-22T11:01:16.329Z,100598.63
2023-03-22T11:03:49.016Z,100589.56
2023-03-22T11:06:23.023Z,100582.88
2023-03-22T11:08:51.015Z,100596.19
2023-03-22T11:11:28.286Z,100587.41
2023-03-22T11:14:00.144Z,100593.25
2023-03-22T11:16:26.855Z,100599.94
2023-03-22T11:18:54.869Z,100585.84
2023-03-22T11:21:28.515Z,100591.69
2023-03-22T11:23:59.023Z,100591.03
2023-03-22T11:26:38.800Z,100582.47
2023-03-22T11:29:18.581Z,100576.44
2023-03-22T11:31:54.334Z,100583.66
2023-03-22T11:34:24.028Z,100581.03
2023-03-22T11:36:50.680Z,100589.34
2023-03-22T11:39:17.171Z,100580.50
2023-03-22T11:41:45.018Z,100576.69
2023-03-22T11:44:15.355Z,100578.47
2023-03-22T11:46:51.437Z,100582.13
2023-03-22T11:49:18.079Z,100577.69
2023-03-22T11:51:44.939Z,100567.88
2023-03-22T11:54:34.065Z,100558.94
2023-03-22T11:57:04.316Z,100561.75
2023-03-22T11:59:38.241Z,100555.88
2023-03-22T12:02:30.939Z,100573.59
2023-03-22T12:05:04.820Z,100559.47
2023-03-22T12:07:34.204Z,100568.94
2023-03-22T12:10:11.252Z,100573.22
2023-03-22T12:12:46.613Z,100568.75
2023-03-22T12:15:21.082Z,100579.59
2023-03-22T12:17:52.542Z,100581.63
2023-03-22T12:20:30.594Z,100571.50
2023-03-22T12:22:58.265Z,100589.66
2023-03-22T12:25:35.192Z,100585.84
2023-03-22T12:28:09.254Z,100578.00
2023-03-22T12:30:53.059Z,100586.66
2023-03-22T12:33:33.245Z,100586.81
2023-03-22T12:36:03.084Z,100583.97
2023-03-22T12:38:39.394Z,100590.50
2023-03-22T12:41:10.849Z,100569.06
2023-03-22T12:43:48.373Z,100566.00
2023-03-22T12:46:21.395Z,100568.03
2023-03-22T12:48:56.036Z,100564.63
2023-03-22T12:51:22.585Z,100565.41
2023-03-22T12:53:53.469Z,100579.69
2023-03-22T12:56:30.530Z,100577.66
2023-03-22T12:59:01.919Z,100569.66
2023-03-22T13:01:45.646Z,100576.66
2023-03-22T13:04:46.469Z,100576.28
2023-03-22T13:07:31.847Z,100585.53
2023-03-22T13:09:59.881Z,100577.66
2023-03-22T13:12:32.228Z,100578.69
2023-03-22T13:15:31.657Z,100571.19
2023-03-22T13:18:05.199Z,100570.25
2023-03-22T13:20:33.249Z,100565.38
2023-03-22T13:23:02.749Z,100569.38
2023-03-22T13:25:34.715Z,100568.59
2023-03-22T13:28:10.406Z,100575.22
2023-03-22T13:30:52.039Z,100571.34
2023-03-22T13:33:33.520Z,100574.03
2023-03-22T13:36:21.282Z,100571.19
2023-03-22T13:38:54.760Z,100568.13
2023-03-22T13:41:24.310Z,100569.31
2023-03-22T13:43:54.106Z,100568.94
2023-03-22T13:46:20.525Z,100578.22
2023-03-22T13:48:47.324Z,100588.25
2023-03-22T13:51:22.821Z,100582.00
2023-03-22T13:53:59.535Z,100582.63
2023-03-22T13:56:41.221Z,100581.47
2023-03-22T13:59:12.948Z,100578.84
2023-03-22T14:01:56.923Z,100586.94
2023-03-22T14:04:36.793Z,100575.28
2023-03-22T14:07:35.207Z,100590.34
2023-03-22T14:10:06.604Z,100594.41
2023-03-22T14:13:05.677Z,100575.91
2023-03-22T14:15:40.491Z,100575.91
2023-03-22T14:18:15.555Z,100568.88
2023-03-22T14:20:42.435Z,100577.78
